Time;durP1;ratioP1;P1;durP2;ratioP2;P2;SDS_P1;SDS_P2;PMS_P1;PMS_P2;Temp;Humidity;BMP_temperature;BMP_pressure;BME280_temperature;BME280_humidity;BME280_pressure;Samples;Min_cycle;Max_cycle;Signal;HPM_P1;HPM_P2
2021/12/19 00:00:34;;;;;;;21.38;19.17;;;;;22.20;102376.00;;;;2080620;28;20207;-63
2021/12/19 00:09:11;;;;;;;20.77;18.67;;;;;22.10;102366.00;;;;2083924;28;20217;-63
2021/12/19 00:10:11;;;;;;;19.70;17.80;;;;;22.20;102367.00;;;;2084481;28;20663;-63
2021/12/19 00:11:12;;;;;;;20.17;18.17;;;;;22.20;102361.00;;;;2084451;28;20213;-63
2021/12/19 00:12:12;;;;;;;19.57;17.57;;;;;22.20;102364.00;;;;2083475;28;20232;-63
2021/12/19 00:13:13;;;;;;;20.03;18.20;;;;;22.10;102363.00;;;;2084936;28;20217;-63
2021/12/19 00:14:14;;;;;;;19.07;17.20;;;;;22.10;102364.00;;;;2084692;28;20237;-63
2021/12/19 00:15:14;;;;;;;18.63;16.93;;;;;22.20;102362.00;;;;2084640;28;20213;-64
2021/12/19 00:16:14;;;;;;;19.83;18.00;;;;;22.10;102360.00;;;;2084496;28;20467;-63
2021/12/19 00:17:15;;;;;;;18.10;16.50;;;;;22.10;102365.00;;;;2084244;28;20221;-63
2021/12/19 00:18:15;;;;;;;18.20;16.40;;;;;22.10;102364.00;;;;2084206;28;20700;-63
2021/12/19 00:19:16;;;;;;;19.23;17.47;;;;;22.10;102366.00;;;;2084439;28;20208;-63
2021/12/19 00:20:16;;;;;;;18.70;16.93;;;;;22.10;102360.00;;;;2080090;28;20227;-63
2021/12/19 00:21:17;;;;;;;18.17;16.53;;;;;22.10;102354.00;;;;2083742;28;20240;-63
2021/12/19 00:22:18;;;;;;;18.38;16.63;;;;;22.10;102351.00;;;;2074272;28;20252;-63
2021/12/19 00:23:18;;;;;;;17.77;16.07;;;;;22.10;102360.00;;;;2083734;28;20209;-63
2021/12/19 00:24:18;;;;;;;19.03;17.23;;;;;22.10;102360.00;;;;2077649;28;20216;-64
2021/12/19 00:25:19;;;;;;;18.30;16.60;;;;;22.10;102358.00;;;;2075263;28;20217;-63
2021/12/19 00:26:19;;;;;;;17.87;16.20;;;;;22.10;102353.00;;;;2084466;28;20833;-64
2021/12/19 00:27:19;;;;;;;17.20;15.60;;;;;22.10;102358.00;;;;2084343;28;20683;-63
2021/12/19 00:28:20;;;;;;;15.87;14.47;;;;;22.10;102358.00;;;;2084614;28;20216;-63
2021/12/19 00:29:20;;;;;;;17.30;15.70;;;;;22.10;102355.00;;;;2084754;28;20209;-63
2021/12/19 00:30:20;;;;;;;17.53;15.93;;;;;22.10;102358.00;;;;2084472;28;20217;-63
2021/12/19 00:31:21;;;;;;;17.00;15.47;;;;;22.10;102358.00;;;;2084110;28;20591;-63
2021/12/19 00:32:21;;;;;;;16.00;14.60;;;;;22.10;102357.00;;;;2084441;28;20205;-64
2021/12/19 00:33:22;;;;;;;15.93;14.43;;;;;22.10;102354.00;;;;2084502;28;20576;-64
2021/12/19 00:34:23;;;;;;;16.00;14.60;;;;;22.10;102356.00;;;;2084212;28;20205;-63
2021/12/19 00:35:23;;;;;;;15.73;14.32;;;;;22.10;102342.00;;;;2083977;28;20860;-64
2021/12/19 00:36:23;;;;;;;15.53;14.13;;;;;22.10;102358.00;;;;2083860;28;20205;-64
2021/12/19 00:37:24;;;;;;;14.43;13.07;;;;;22.00;102360.00;;;;2083662;28;20305;-63
2021/12/19 00:38:25;;;;;;;15.80;14.30;;;;;22.00;102346.00;;;;2084048;28;20210;-63
2021/12/19 00:39:25;;;;;;;15.90;14.40;;;;;22.10;102342.00;;;;2083836;28;20229;-64
2021/12/19 00:40:25;;;;;;;15.63;14.13;;;;;22.00;102347.00;;;;2083672;28;20210;-63
2021/12/19 00:41:26;;;;;;;15.80;14.30;;;;;22.00;102341.00;;;;2079579;28;20205;-64
2021/12/19 00:42:30;;;;;;;15.17;13.77;;;;;22.00;102344.00;;;;2083795;28;20205;-62
2021/12/19 00:43:36;;;;;;;15.65;14.25;;;;;21.90;102336.00;;;;2083649;28;20296;-63
2021/12/19 00:44:37;;;;;;;15.68;14.07;;;;;21.60;102340.00;;;;2083750;28;20221;-64
2021/12/19 00:45:40;;;;;;;15.50;13.52;;;;;21.70;102340.00;;;;2083862;28;20273;-64
2021/12/19 00:46:53;;;;;;;15.80;14.20;;;;;21.50;102343.00;;;;2083918;28;20217;-63
2021/12/19 00:47:53;;;;;;;13.35;12.27;;;;;21.60;102344.00;;;;2081288;28;20217;-64
2021/12/19 00:48:54;;;;;;;14.17;12.73;;;;;21.70;102347.00;;;;2083924;28;20217;-65
2021/12/19 00:49:55;;;;;;;12.43;11.23;;;;;21.70;102347.00;;;;2083957;28;20209;-63
2021/12/19 00:50:55;;;;;;;12.73;11.53;;;;;21.80;102344.00;;;;2083516;28;20213;-63
2021/12/19 00:51:55;;;;;;;13.53;12.30;;;;;21.90;102337.00;;;;2082959;28;20218;-62
2021/12/19 00:52:56;;;;;;;14.27;12.87;;;;;21.90;102335.00;;;;2083681;28;20261;-62
2021/12/19 00:53:56;;;;;;;13.70;12.50;;;;;22.00;102334.00;;;;2084038;28;20218;-63
2021/12/19 00:54:56;;;;;;;12.60;11.50;;;;;22.00;102344.00;;;;2083921;28;20213;-63
2021/12/19 00:55:57;;;;;;;12.10;11.00;;;;;22.00;102336.00;;;;2083762;28;20267;-63
2021/12/19 00:56:57;;;;;;;12.47;11.20;;;;;22.00;102342.00;;;;2083724;28;20296;-63
2021/12/19 00:57:58;;;;;;;12.27;11.07;;;;;22.00;102332.00;;;;2084169;28;20205;-62
2021/12/19 00:58:58;;;;;;;12.97;11.67;;;;;22.00;102333.00;;;;2084156;28;20352;-63
2021/12/19 00:59:58;;;;;;;12.40;11.30;;;;;22.00;102332.00;;;;2083978;28;20216;-63
2021/12/19 01:00:59;;;;;;;13.20;10.80;;;;;22.00;102326.00;;;;2083656;28;20213;-63
2021/12/19 01:01:59;;;;;;;12.80;11.60;;;;;21.90;102341.00;;;;2083977;28;20279;-63
2021/12/19 01:03:00;;;;;;;11.00;10.10;;;;;22.00;102320.00;;;;2084018;28;20251;-63
2021/12/19 01:04:01;;;;;;;13.50;12.20;;;;;22.00;102322.00;;;;2083567;28;20216;-63
2021/12/19 01:05:02;;;;;;;11.73;10.55;;;;;22.00;102326.00;;;;2083889;28;20262;-63
2021/12/19 01:06:03;;;;;;;12.48;11.35;;;;;22.00;102322.00;;;;2083796;28;20766;-63
2021/12/19 01:07:03;;;;;;;12.87;11.00;;;;;22.00;102329.00;;;;2083388;28;20216;-63
2021/12/19 01:08:04;;;;;;;12.33;11.03;;;;;22.00;102317.00;;;;2083543;28;20225;-62
2021/12/19 01:09:05;;;;;;;12.07;10.97;;;;;22.00;102322.00;;;;2076520;28;20216;-62
2021/12/19 01:10:06;;;;;;;11.03;10.13;;;;;22.00;102314.00;;;;2091358;28;20443;-62
2021/12/19 01:11:07;;;;;;;12.10;11.00;;;;;22.00;102313.00;;;;2088602;28;20231;-62
2021/12/19 01:12:10;;;;;;;11.20;10.10;;;;;22.00;102315.00;;;;2083476;28;20711;-62
2021/12/19 01:13:11;;;;;;;12.23;11.13;;;;;22.00;102316.00;;;;2079635;28;20213;-62
2021/12/19 01:14:11;;;;;;;11.63;10.63;;;;;22.00;102316.00;;;;2081534;28;20300;-63
2021/12/19 01:15:13;;;;;;;11.30;10.30;;;;;22.00;102322.00;;;;2091638;28;20452;-63
2021/12/19 01:16:14;;;;;;;11.80;10.60;;;;;22.00;102318.00;;;;2069750;28;20232;-63
2021/12/19 01:17:14;;;;;;;11.38;10.38;;;;;22.00;102305.00;;;;2083286;28;20286;-63
2021/12/19 01:18:15;;;;;;;11.60;10.60;;;;;22.00;102314.00;;;;2088234;28;20263;-62
2021/12/19 01:19:15;;;;;;;11.63;10.43;;;;;21.90;102312.00;;;;2083633;28;20209;-63
2021/12/19 01:20:21;;;;;;;11.00;10.00;;;;;22.00;102316.00;;;;2075363;28;20217;-63
2021/12/19 01:21:21;;;;;;;11.88;10.68;;;;;22.00;102312.00;;;;2078056;28;20669;-62
2021/12/19 01:22:21;;;;;;;10.10;9.20;;;;;21.90;102302.00;;;;2083657;28;20295;-63
2021/12/19 01:23:22;;;;;;;11.50;10.07;;;;;22.00;102313.00;;;;2083591;28;20266;-63
2021/12/19 01:24:22;;;;;;;11.03;10.10;;;;;22.00;102306.00;;;;2084008;28;20266;-63
2021/12/19 01:25:23;;;;;;;11.60;10.60;;;;;22.00;102322.00;;;;2083970;28;20217;-63
2021/12/19 01:26:23;;;;;;;11.50;10.40;;;;;22.00;102311.00;;;;2084027;28;20323;-64
2021/12/19 01:27:23;;;;;;;10.87;9.87;;;;;21.90;102299.00;;;;2083845;28;20216;-63
2021/12/19 01:28:24;;;;;;;11.03;10.00;;;;;22.00;102306.00;;;;2083760;28;20225;-63
2021/12/19 01:29:24;;;;;;;11.50;9.70;;;;;21.90;102311.00;;;;2084044;28;20224;-63
2021/12/19 01:30:24;;;;;;;10.90;9.90;;;;;21.90;102307.00;;;;2083758;28;20228;-63
2021/12/19 01:31:25;;;;;;;10.87;9.77;;;;;22.00;102313.00;;;;2083825;28;20217;-62
2021/12/19 01:32:25;;;;;;;11.23;10.23;;;;;22.00;102308.00;;;;2091840;28;20291;-63
2021/12/19 01:33:26;;;;;;;11.00;10.00;;;;;22.00;102306.00;;;;2095088;28;20220;-62
2021/12/19 01:34:26;;;;;;;11.00;10.00;;;;;22.00;102301.00;;;;2083952;28;20271;-63
2021/12/19 01:35:27;;;;;;;10.73;9.70;;;;;21.90;102303.00;;;;2084014;28;20700;-63
2021/12/19 01:36:27;;;;;;;10.53;9.53;;;;;21.90;102309.00;;;;2083884;28;20258;-63
2021/12/19 01:37:28;;;;;;;10.67;9.67;;;;;21.90;102302.00;;;;2083799;28;20209;-63
2021/12/19 01:38:30;;;;;;;9.60;8.73;;;;;21.90;102314.00;;;;2083853;28;20628;-63
2021/12/19 01:39:30;;;;;;;11.23;10.05;;;;;22.00;102308.00;;;;2083878;28;20216;-63
2021/12/19 01:40:30;;;;;;;10.00;9.10;;;;;22.00;102316.00;;;;2083625;28;20212;-62
2021/12/19 01:41:31;;;;;;;10.70;9.70;;;;;21.90;102316.00;;;;2083724;28;20202;-63
2021/12/19 01:42:32;;;;;;;9.80;8.90;;;;;22.00;102309.00;;;;2084118;28;20755;-62
2021/12/19 01:43:32;;;;;;;9.95;8.95;;;;;22.00;102313.00;;;;2084176;28;20685;-62
2021/12/19 01:44:33;;;;;;;9.80;8.90;;;;;22.00;102309.00;;;;2084097;28;20213;-62
2021/12/19 01:45:38;;;;;;;9.67;8.77;;;;;22.00;102307.00;;;;2084147;28;20217;-62
2021/12/19 01:46:39;;;;;;;10.18;9.07;;;;;21.90;102304.00;;;;2084240;28;20296;-62
2021/12/19 01:47:39;;;;;;;9.20;8.30;;;;;21.90;102307.00;;;;2084029;28;20224;-62
2021/12/19 01:48:39;;;;;;;8.90;8.10;;;;;21.90;102308.00;;;;2084114;28;20216;-62
2021/12/19 01:49:40;;;;;;;9.83;8.93;;;;;22.00;102307.00;;;;2083997;28;20205;-62
2021/12/19 01:50:40;;;;;;;9.67;8.77;;;;;22.00;102304.00;;;;2082273;28;20295;-63
2021/12/19 01:51:41;;;;;;;9.07;8.27;;;;;22.00;102305.00;;;;2091252;28;20295;-62
2021/12/19 01:52:42;;;;;;;8.67;7.87;;;;;21.90;102310.00;;;;2083234;28;20216;-62
2021/12/19 01:53:43;;;;;;;9.27;8.40;;;;;21.90;102306.00;;;;2058838;28;20223;-62
2021/12/19 01:54:44;;;;;;;9.00;8.20;;;;;21.90;102303.00;;;;2066923;28;20222;-62
2021/12/19 01:55:45;;;;;;;8.98;8.15;;;;;21.90;102303.00;;;;2083775;28;20282;-62
2021/12/19 01:56:46;;;;;;;8.95;8.15;;;;;21.90;102308.00;;;;2083625;28;20224;-63
2021/12/19 01:57:46;;;;;;;9.37;8.37;;;;;21.90;102304.00;;;;2083723;28;20224;-63
2021/12/19 01:58:47;;;;;;;8.47;7.60;;;;;21.90;102293.00;;;;2083520;28;20684;-62
2021/12/19 01:59:47;;;;;;;8.60;7.80;;;;;21.90;102291.00;;;;2083296;28;20550;-62
2021/12/19 02:00:50;;;;;;;8.87;8.07;;;;;21.90;102296.00;;;;2083238;28;20209;-62
2021/12/19 02:01:52;;;;;;;7.72;6.93;;;;;21.90;102300.00;;;;2091115;28;20219;-62
2021/12/19 02:02:53;;;;;;;8.88;7.60;;;;;21.90;102290.00;;;;2091051;28;20275;-62
2021/12/19 02:03:53;;;;;;;8.68;7.80;;;;;21.90;102295.00;;;;2077932;28;20220;-62
2021/12/19 02:04:54;;;;;;;8.00;7.33;;;;;21.90;102303.00;;;;2076642;28;20227;-62
2021/12/19 02:05:54;;;;;;;7.80;7.20;;;;;21.90;102290.00;;;;2078648;28;20398;-63
2021/12/19 02:06:54;;;;;;;8.50;7.73;;;;;21.90;102285.00;;;;2080297;28;20220;-64
2021/12/19 02:07:55;;;;;;;8.30;7.50;;;;;21.80;102294.00;;;;2083698;28;20216;-63
2021/12/19 02:08:59;;;;;;;10.00;8.17;;;;;21.90;102287.00;;;;2083920;28;20209;-64
2021/12/19 02:09:59;;;;;;;8.18;7.45;;;;;21.90;102291.00;;;;2083598;28;20439;-65
2021/12/19 02:11:00;;;;;;;8.87;8.07;;;;;21.90;102291.00;;;;2091112;28;20236;-64
2021/12/19 02:12:00;;;;;;;8.47;7.67;;;;;21.90;102295.00;;;;2091309;28;20603;-64
2021/12/19 02:13:01;;;;;;;8.53;7.83;;;;;22.00;102290.00;;;;2083646;28;20575;-64
2021/12/19 02:14:02;;;;;;;9.15;8.35;;;;;22.00;102287.00;;;;2083734;28;20295;-64
2021/12/19 02:15:02;;;;;;;8.87;7.97;;;;;22.00;102289.00;;;;2083450;28;20221;-64
2021/12/19 02:16:02;;;;;;;8.50;7.70;;;;;21.90;102294.00;;;;2083675;28;20214;-64
2021/12/19 02:17:03;;;;;;;8.93;8.03;;;;;22.00;102289.00;;;;2083620;28;20213;-64
2021/12/19 02:18:09;;;;;;;9.30;8.30;;;;;22.00;102290.00;;;;2083754;28;20230;-64
2021/12/19 02:19:09;;;;;;;9.50;8.43;;;;;21.90;102284.00;;;;2083934;28;20499;-64
2021/12/19 02:20:11;;;;;;;9.47;8.57;;;;;21.90;102281.00;;;;2084070;28;20240;-64
2021/12/19 02:21:11;;;;;;;8.65;7.85;;;;;21.90;102283.00;;;;2083742;28;20217;-64
2021/12/19 02:22:12;;;;;;;8.63;7.83;;;;;21.90;102285.00;;;;2083889;28;20210;-64
2021/12/19 02:23:12;;;;;;;9.63;8.73;;;;;21.90;102285.00;;;;2083943;28;20216;-64
2021/12/19 02:24:13;;;;;;;10.57;9.47;;;;;21.90;102284.00;;;;2084791;28;20224;-64
2021/12/19 02:25:14;;;;;;;9.43;8.60;;;;;21.90;102277.00;;;;2083710;28;20233;-64
2021/12/19 02:26:15;;;;;;;9.48;8.68;;;;;21.90;102278.00;;;;2083719;28;20213;-64
2021/12/19 02:27:15;;;;;;;8.83;8.03;;;;;21.90;102287.00;;;;2083986;28;20700;-64
2021/12/19 02:28:15;;;;;;;9.70;8.80;;;;;21.90;102266.00;;;;2083846;28;20317;-64
2021/12/19 02:29:16;;;;;;;9.07;8.17;;;;;21.90;102273.00;;;;2083922;28;20220;-64
2021/12/19 02:30:16;;;;;;;9.50;8.60;;;;;21.80;102283.00;;;;2083780;28;20750;-64
2021/12/19 02:31:16;;;;;;;8.90;8.10;;;;;21.80;102273.00;;;;2083741;28;20696;-64
2021/12/19 02:32:16;;;;;;;9.97;8.97;;;;;21.90;102275.00;;;;2084504;28;20845;-64
2021/12/19 02:33:20;;;;;;;10.20;9.10;;;;;21.80;102275.00;;;;2086033;28;20714;-64
2021/12/19 02:34:25;;;;;;;8.50;7.70;;;;;21.80;102273.00;;;;2086725;28;20295;-64
2021/12/19 02:35:30;;;;;;;8.73;8.02;;;;;21.80;102235.00;;;;2082483;28;20263;-64
2021/12/19 02:48:13;;;;;;;6.47;5.88;;;;;21.70;102267.00;;;;2082647;28;20223;-64
2021/12/19 02:49:13;;;;;;;7.05;6.45;;;;;21.80;102269.00;;;;2086067;28;20758;-65
2021/12/19 02:50:16;;;;;;;8.10;7.40;;;;;21.80;102269.00;;;;2085564;28;20221;-65
2021/12/19 02:51:17;;;;;;;6.25;5.75;;;;;21.70;102273.00;;;;2086002;28;20651;-64
2021/12/19 02:52:18;;;;;;;7.43;6.40;;;;;21.70;102263.00;;;;2077958;28;20211;-64
2021/12/19 02:53:39;;;;;;;7.38;6.78;;;;;21.70;102274.00;;;;2086082;28;20247;-64
2021/12/19 02:54:40;;;;;;;7.20;6.50;;;;;21.70;102255.00;;;;2089872;28;20322;-64
2021/12/19 02:55:40;;;;;;;6.73;6.13;;;;;21.70;102268.00;;;;2093920;28;20224;-64
2021/12/19 02:56:40;;;;;;;6.77;6.17;;;;;21.70;102260.00;;;;2086289;28;20579;-64
2021/12/19 02:57:41;;;;;;;6.57;5.97;;;;;21.70;102250.00;;;;2086025;28;20736;-65
2021/12/19 02:58:42;;;;;;;7.67;6.40;;;;;21.70;102266.00;;;;2086288;28;20703;-64
2021/12/19 02:59:42;;;;;;;6.70;6.07;;;;;21.70;102257.00;;;;2086305;28;20235;-64
2021/12/19 03:00:43;;;;;;;6.53;6.00;;;;;21.70;102263.00;;;;2086025;28;20206;-64
2021/12/19 03:01:45;;;;;;;6.97;6.37;;;;;21.70;102255.00;;;;2086116;28;20220;-64
2021/12/19 03:02:45;;;;;;;6.00;5.50;;;;;21.70;102259.00;;;;2086394;28;20213;-64
2021/12/19 03:03:45;;;;;;;5.83;5.33;;;;;21.70;102253.00;;;;2086335;28;20217;-64
2021/12/19 03:04:59;;;;;;;5.60;5.10;;;;;21.70;102249.00;;;;2086596;28;20236;-64
2021/12/19 03:05:59;;;;;;;6.25;5.70;;;;;21.70;102248.00;;;;2086499;28;20216;-64
2021/12/19 03:07:00;;;;;;;5.93;5.40;;;;;21.70;102250.00;;;;2086405;28;20231;-65
2021/12/19 03:08:03;;;;;;;5.83;5.33;;;;;21.70;102244.00;;;;2086469;28;20262;-64
2021/12/19 03:09:07;;;;;;;6.07;5.57;;;;;21.70;102241.00;;;;2085903;28;20712;-64
2021/12/19 03:12:57;;;;;;;6.20;5.63;;;;;21.70;102245.00;;;;2082589;28;20582;-64
2021/12/19 03:17:58;;;;;;;5.90;5.40;;;;;21.70;102236.00;;;;2083366;28;20204;-64
2021/12/19 03:18:58;;;;;;;6.55;5.95;;;;;21.70;102241.00;;;;2086190;28;20219;-64
2021/12/19 03:19:59;;;;;;;6.30;5.80;;;;;21.70;102247.00;;;;2086213;28;20213;-65
2021/12/19 03:21:00;;;;;;;8.38;6.18;;;;;21.70;102243.00;;;;2086041;28;20221;-64
2021/12/19 03:22:00;;;;;;;6.23;5.63;;;;;21.60;102194.00;;;;2086089;28;20213;-65
2021/12/19 03:23:00;;;;;;;5.70;5.20;;;;;21.70;102229.00;;;;2085618;28;20295;-64
2021/12/19 03:24:01;;;;;;;5.57;5.13;;;;;21.70;102231.00;;;;2085888;28;20581;-64
2021/12/19 03:25:01;;;;;;;6.70;6.10;;;;;21.70;102231.00;;;;2086165;28;20244;-64
2021/12/19 03:26:01;;;;;;;6.13;5.53;;;;;21.60;102230.00;;;;2086054;28;20216;-64
2021/12/19 03:27:02;;;;;;;6.50;5.90;;;;;21.70;102227.00;;;;2085051;28;20209;-65
2021/12/19 03:28:04;;;;;;;6.13;5.63;;;;;21.60;102238.00;;;;2085470;28;20741;-64
2021/12/19 03:29:04;;;;;;;5.88;5.35;;;;;21.60;102236.00;;;;2086463;28;20267;-64
2021/12/19 03:30:05;;;;;;;5.67;5.17;;;;;21.60;102232.00;;;;2086177;28;20216;-64
2021/12/19 03:31:05;;;;;;;5.97;5.47;;;;;21.60;102219.00;;;;2078333;28;20217;-64
2021/12/19 03:32:06;;;;;;;6.37;5.80;;;;;21.60;102227.00;;;;2084320;28;20259;-64
2021/12/19 03:33:06;;;;;;;8.33;5.07;;;;;21.60;102176.00;;;;2084381;28;20227;-65
2021/12/19 03:34:07;;;;;;;6.17;5.20;;;;;21.60;102221.00;;;;2086003;28;20213;-65
2021/12/19 03:35:07;;;;;;;5.80;5.23;;;;;21.60;102225.00;;;;2098206;23;20205;-59
2021/12/19 03:36:07;;;;;;;6.10;5.50;;;;;21.60;102231.00;;;;2079498;28;20245;-61
2021/12/19 03:37:08;;;;;;;5.90;5.30;;;;;21.60;102218.00;;;;2085496;28;20221;-60
2021/12/19 03:38:10;;;;;;;5.23;4.73;;;;;21.60;102230.00;;;;2085242;28;20237;-60
2021/12/19 03:39:25;;;;;;;4.93;4.53;;;;;21.60;102225.00;;;;2083150;28;20217;-59
2021/12/19 03:40:35;;;;;;;5.90;5.40;;;;;21.60;102229.00;;;;2078990;28;20273;-59
2021/12/19 03:41:35;;;;;;;5.90;5.40;;;;;21.60;102222.00;;;;2073730;28;20210;-58
2021/12/19 03:42:41;;;;;;;6.13;5.53;;;;;21.60;102222.00;;;;2074838;28;20685;-58
2021/12/19 03:43:41;;;;;;;5.55;5.05;;;;;21.60;102213.00;;;;2081299;28;20613;-59
2021/12/19 03:44:42;;;;;;;5.60;5.10;;;;;21.60;102215.00;;;;2080508;28;20310;-59
2021/12/19 03:45:43;;;;;;;5.70;5.20;;;;;21.60;102216.00;;;;2070923;28;20987;-59
2021/12/19 03:46:43;;;;;;;5.70;5.20;;;;;21.60;102217.00;;;;2078495;28;20430;-59
2021/12/19 03:47:44;;;;;;;5.80;5.30;;;;;21.60;102201.00;;;;2078512;28;20718;-59
2021/12/19 03:48:44;;;;;;;5.47;4.97;;;;;21.60;102203.00;;;;2077647;28;20725;-59
2021/12/19 03:49:46;;;;;;;5.50;5.00;;;;;21.60;102197.00;;;;2076080;28;20681;-59
2021/12/19 03:50:48;;;;;;;6.72;5.88;;;;;21.60;102204.00;;;;2076515;28;20210;-59
2021/12/19 03:51:49;;;;;;;5.85;5.35;;;;;21.60;102201.00;;;;2076811;28;20259;-59
2021/12/19 03:52:53;;;;;;;5.20;4.70;;;;;21.50;102199.00;;;;2076602;28;20253;-59
2021/12/19 03:53:53;;;;;;;4.90;4.50;;;;;21.50;102206.00;;;;2076681;28;20233;-59
2021/12/19 03:54:54;;;;;;;5.50;5.00;;;;;21.60;102200.00;;;;2076698;28;20580;-59
2021/12/19 03:55:54;;;;;;;5.37;4.87;;;;;21.60;102194.00;;;;2079515;28;20588;-59
2021/12/19 03:56:54;;;;;;;5.43;4.97;;;;;21.60;102202.00;;;;2075867;28;20645;-59
2021/12/19 03:57:57;;;;;;;5.67;5.17;;;;;21.50;102198.00;;;;2076939;28;20237;-59
2021/12/19 03:58:57;;;;;;;5.15;4.70;;;;;21.60;102198.00;;;;2074923;28;20367;-59
2021/12/19 03:59:58;;;;;;;5.33;4.83;;;;;21.50;102187.00;;;;2076751;28;20637;-59
2021/12/19 04:01:00;;;;;;;5.33;4.93;;;;;21.50;102187.00;;;;2076614;28;20218;-59
2021/12/19 04:02:00;;;;;;;5.20;4.70;;;;;21.50;102188.00;;;;2072899;28;20999;-59
2021/12/19 04:03:04;;;;;;;5.43;4.93;;;;;21.50;102188.00;;;;2076576;28;20226;-59
2021/12/19 04:04:04;;;;;;;5.63;5.18;;;;;21.50;102188.00;;;;2076736;28;20523;-59
2021/12/19 04:05:05;;;;;;;4.93;4.53;;;;;21.50;102168.00;;;;2076451;28;20704;-59
2021/12/19 04:06:06;;;;;;;4.70;4.30;;;;;21.50;102184.00;;;;2075697;28;20218;-59
2021/12/19 04:07:06;;;;;;;5.17;4.77;;;;;21.50;102178.00;;;;2075179;28;20279;-59
2021/12/19 04:08:06;;;;;;;5.33;4.93;;;;;21.60;102173.00;;;;2075922;28;20213;-58
2021/12/19 04:09:07;;;;;;;6.23;5.30;;;;;21.50;102173.00;;;;2075919;28;20224;-59
2021/12/19 04:10:07;;;;;;;5.47;4.97;;;;;21.50;102178.00;;;;2076114;28;20206;-59
2021/12/19 04:11:07;;;;;;;5.77;4.90;;;;;21.50;102173.00;;;;2075808;28;20214;-59
2021/12/19 04:12:09;;;;;;;5.20;4.80;;;;;21.50;102176.00;;;;2075648;28;20218;-59
2021/12/19 04:13:09;;;;;;;4.93;4.53;;;;;21.40;102175.00;;;;2075962;28;20225;-59
2021/12/19 04:14:09;;;;;;;5.77;5.27;;;;;21.50;102178.00;;;;2075932;28;20301;-59
2021/12/19 04:15:10;;;;;;;5.23;4.80;;;;;21.50;102174.00;;;;2075811;28;20214;-59
2021/12/19 04:16:11;;;;;;;5.00;4.60;;;;;21.50;102176.00;;;;2075815;28;20214;-59
2021/12/19 04:17:11;;;;;;;5.60;5.10;;;;;21.50;102175.00;;;;2075577;28;20214;-59
2021/12/19 04:18:11;;;;;;;5.30;4.87;;;;;21.50;102174.00;;;;2076388;28;20265;-59
2021/12/19 04:19:11;;;;;;;5.57;5.07;;;;;21.50;102172.00;;;;2071618;28;20218;-58
2021/12/19 04:20:15;;;;;;;5.50;5.00;;;;;21.50;102166.00;;;;2076503;28;20275;-59
2021/12/19 04:21:15;;;;;;;4.80;4.40;;;;;21.50;102165.00;;;;2075723;28;20221;-58
2021/12/19 04:22:15;;;;;;;5.83;5.33;;;;;21.50;102163.00;;;;2075800;28;20241;-59
2021/12/19 04:23:16;;;;;;;4.70;4.40;;;;;21.50;102166.00;;;;2075835;28;20205;-60
2021/12/19 04:24:16;;;;;;;5.27;4.87;;;;;21.50;102161.00;;;;2076088;28;20218;-59
2021/12/19 04:25:17;;;;;;;5.90;5.40;;;;;21.50;102164.00;;;;2075551;28;20278;-59
2021/12/19 04:26:17;;;;;;;5.50;5.00;;;;;21.50;102157.00;;;;2076027;28;20691;-59
2021/12/19 04:27:18;;;;;;;5.63;5.13;;;;;21.50;102161.00;;;;2075979;28;20240;-59
2021/12/19 04:28:19;;;;;;;5.55;5.05;;;;;21.50;102162.00;;;;2074213;28;20226;-59
2021/12/19 04:29:19;;;;;;;5.50;5.00;;;;;21.50;102156.00;;;;2076127;28;20902;-59
2021/12/19 04:30:21;;;;;;;5.70;5.20;;;;;21.50;102158.00;;;;2075573;28;20241;-59
2021/12/19 04:31:22;;;;;;;5.70;5.20;;;;;21.50;102160.00;;;;2075943;28;20214;-59
2021/12/19 04:32:28;;;;;;;5.37;4.87;;;;;21.50;102149.00;;;;2075167;28;20669;-59
2021/12/19 04:33:30;;;;;;;6.10;5.60;;;;;21.50;102146.00;;;;2074944;28;20216;-59
2021/12/19 04:34:30;;;;;;;5.18;4.78;;;;;21.50;102153.00;;;;2075975;28;20221;-59
2021/12/19 04:35:34;;;;;;;5.23;4.83;;;;;21.50;102146.00;;;;2074709;28;20241;-59
2021/12/19 04:36:39;;;;;;;5.85;5.35;;;;;21.40;102146.00;;;;2067156;28;20210;-59
2021/12/19 04:38:14;;;;;;;5.28;4.60;;;;;21.50;102146.00;;;;2072454;28;20288;-59
2021/12/19 04:39:50;;;;;;;5.68;5.10;;;;;21.40;102154.00;;;;2073355;28;20811;-59
2021/12/19 04:40:39;;;;;;;5.68;5.18;;;;;21.40;102149.00;;;;2069239;28;20296;-59
2021/12/19 04:52:06;;;;;;;5.32;4.82;;;;;21.40;102160.00;;;;2072626;28;20245;-59
2021/12/19 04:55:57;;;;;;;5.93;5.43;;;;;21.40;102153.00;;;;2075715;28;20218;-59
2021/12/19 04:58:15;;;;;;;6.20;5.37;;;;;21.40;102151.00;;;;2076220;28;20214;-59
2021/12/19 05:00:20;;;;;;;5.50;5.00;;;;;21.40;102144.00;;;;2075472;28;20217;-59
2021/12/19 05:02:46;;;;;;;5.75;5.25;;;;;21.40;102146.00;;;;2072411;28;20829;-59
2021/12/19 05:04:03;;;;;;;5.13;4.63;;;;;21.40;102145.00;;;;2076201;28;20359;-59
2021/12/19 05:05:57;;;;;;;5.80;5.30;;;;;21.40;102151.00;;;;2072193;28;20295;-59
2021/12/19 05:14:23;;;;;;;5.03;4.63;;;;;21.30;102145.00;;;;2076034;28;20632;-59
2021/12/19 05:15:27;;;;;;;5.00;4.60;;;;;21.40;102143.00;;;;2062902;28;20292;-59
2021/12/19 05:16:27;;;;;;;4.82;4.43;;;;;21.30;102146.00;;;;2075379;28;20220;-59
2021/12/19 05:17:29;;;;;;;4.60;4.20;;;;;21.30;102143.00;;;;2076110;28;20615;-59
2021/12/19 05:18:34;;;;;;;5.47;5.07;;;;;21.30;102143.00;;;;2076123;28;20212;-59
2021/12/19 05:19:48;;;;;;;5.32;4.90;;;;;21.20;102151.00;;;;2075249;28;20244;-59
2021/12/19 05:21:05;;;;;;;4.13;3.72;;;;;21.30;102137.00;;;;2072975;28;20216;-59
2021/12/19 05:22:06;;;;;;;5.00;4.45;;;;;21.30;102147.00;;;;2075868;28;20218;-59
2021/12/19 05:23:20;;;;;;;4.67;4.27;;;;;21.30;102143.00;;;;2075653;28;20268;-59
2021/12/19 05:25:21;;;;;;;5.20;4.73;;;;;21.30;102138.00;;;;2076040;28;20229;-59
2021/12/19 05:26:21;;;;;;;4.70;4.20;;;;;21.30;102139.00;;;;2076060;28;20225;-59
2021/12/19 05:27:21;;;;;;;4.37;3.97;;;;;21.30;102138.00;;;;2076014;28;20214;-59
2021/12/19 05:28:22;;;;;;;5.10;4.70;;;;;21.30;102143.00;;;;2076098;28;20315;-59
2021/12/19 05:29:22;;;;;;;4.73;3.97;;;;;21.30;102147.00;;;;2076112;28;20225;-59
2021/12/19 05:30:23;;;;;;;4.10;3.80;;;;;21.30;102145.00;;;;2075073;28;20652;-59
2021/12/19 05:31:23;;;;;;;4.17;3.83;;;;;21.30;102149.00;;;;2075390;28;20788;-59
2021/12/19 05:32:24;;;;;;;4.43;4.03;;;;;21.30;102136.00;;;;2076144;28;20880;-59
2021/12/19 05:33:24;;;;;;;4.80;4.40;;;;;21.30;102141.00;;;;2075260;28;20490;-61
2021/12/19 05:34:25;;;;;;;4.80;4.40;;;;;21.30;102143.00;;;;2075904;28;20210;-60
2021/12/19 05:45:53;;;;;;;4.10;3.72;;;;;21.30;102143.00;;;;2072466;28;21088;-59
2021/12/19 05:46:53;;;;;;;5.17;3.80;;;;;21.20;102141.00;;;;2075314;28;20225;-59
2021/12/19 05:47:54;;;;;;;4.20;3.80;;;;;21.30;102148.00;;;;2075827;28;20458;-59
2021/12/19 05:48:54;;;;;;;4.07;3.67;;;;;21.30;102135.00;;;;2075567;28;20229;-59
2021/12/19 05:49:54;;;;;;;4.53;4.07;;;;;21.30;102143.00;;;;2075911;28;20244;-59
2021/12/19 05:50:55;;;;;;;4.13;3.60;;;;;21.30;102141.00;;;;2075459;28;20441;-59
2021/12/19 05:51:55;;;;;;;3.73;3.33;;;;;21.30;102138.00;;;;2075828;28;20225;-59
2021/12/19 05:52:56;;;;;;;3.97;3.60;;;;;21.30;102141.00;;;;2075756;28;20225;-59
2021/12/19 05:53:56;;;;;;;3.97;3.67;;;;;21.30;102137.00;;;;2075749;28;20678;-59
2021/12/19 05:54:56;;;;;;;3.73;3.43;;;;;21.30;102126.00;;;;2074954;28;20799;-59
2021/12/19 05:55:57;;;;;;;3.70;3.40;;;;;21.30;102120.00;;;;2066244;28;21574;-60
2021/12/19 05:56:57;;;;;;;3.77;3.37;;;;;21.30;102120.00;;;;2074934;28;20585;-60
2021/12/19 05:57:58;;;;;;;3.47;3.17;;;;;21.30;102120.00;;;;2075747;28;20465;-60
2021/12/19 05:58:58;;;;;;;3.60;3.30;;;;;21.30;102128.00;;;;2075701;28;20215;-59
2021/12/19 05:59:59;;;;;;;2.87;2.67;;;;;21.30;102126.00;;;;2075833;28;20222;-59
2021/12/19 06:00:59;;;;;;;3.07;2.77;;;;;21.30;102127.00;;;;2075534;28;20232;-59
2021/12/19 06:01:59;;;;;;;2.97;2.77;;;;;21.30;102133.00;;;;2075911;28;20223;-59
2021/12/19 06:03:00;;;;;;;3.40;3.10;;;;;21.30;102128.00;;;;2074712;28;20225;-59
2021/12/19 06:04:01;;;;;;;3.35;3.05;;;;;21.20;102119.00;;;;2075815;28;20217;-59
2021/12/19 06:05:03;;;;;;;3.40;3.03;;;;;21.20;102131.00;;;;2075698;28;20232;-59